logo
Search for airport 
image banner adimage banner adimage banner ad
image banner ad

SHCF - Hospital Carlos Cisternas

Located in Calama, Chile

ICAO - , IATA -

Data provided by Airmate  

General information

Coordinates: S22°26'40" W68°55'0"
Elevation is 7495 feet MSL.
 
View others Airports in Antofagasta

Operational data

Special qualification required
Current time UTC:
Current local time:
Weather at : SCCF - El Loa ( 6 km )
METAR: SCCF 162000Z 27014KT CAVOK 24/M22 Q1025
TAF: TAF SCCF 161627Z 1618/1718 26015KT CAVOK TX25/1618Z TN01/1710Z BECMG 1622/1700 26005KT BECMG 1702/1704 11020KT BECMG 1715/1716 11010KT BECMG 1717/1718 27015KT
View NOTAMs / SUP AIP / TFR affecting this airport [VIEW]
Communications frequencies: [VIEW]

Runways:

Airport contact information

Address: Calama Chile

Satellite view of SHCF